Time;durP1;ratioP1;P1;durP2;ratioP2;P2;SDS_P1;SDS_P2;PMS_P1;PMS_P2;Temp;Humidity;BMP_temperature;BMP_pressure;BME280_temperature;BME280_humidity;BME280_pressure;Samples;Min_cycle;Max_cycle;Signal;HPM_P1;HPM_P2
2022/03/25 00:00:25;;;;;;;7.60;5.20;;;6.60;85.70;;;;;;5016346;28;20167;-70
2022/03/25 00:02:51;;;;;;;9.75;6.35;;;6.60;85.90;;;;;;5035511;28;20266;-71
2022/03/25 00:05:16;;;;;;;7.83;6.33;;;6.60;86.40;;;;;;5035346;28;20620;-70
2022/03/25 00:07:43;;;;;;;8.80;6.03;;;6.60;86.90;;;;;;5035675;28;20405;-68
2022/03/25 00:10:09;;;;;;;9.15;5.85;;;6.50;87.30;;;;;;5035696;28;20536;-68
2022/03/25 00:12:35;;;;;;;12.20;6.67;;;6.50;87.80;;;;;;5035630;28;20170;-69
2022/03/25 00:15:01;;;;;;;6.53;5.80;;;6.40;88.00;;;;;;5034808;28;20288;-70
2022/03/25 00:17:27;;;;;;;9.13;6.93;;;6.40;88.70;;;;;;5035156;28;20412;-67
2022/03/25 00:19:53;;;;;;;6.95;5.45;;;6.30;87.80;;;;;;5035359;28;20397;-68
2022/03/25 00:22:19;;;;;;;7.13;6.17;;;6.20;88.30;;;;;;5035385;28;20659;-69
2022/03/25 00:24:44;;;;;;;9.40;6.47;;;6.20;89.60;;;;;;5033643;28;20472;-67
2022/03/25 00:27:13;;;;;;;9.37;7.83;;;6.10;90.20;;;;;;5035199;28;20181;-68
2022/03/25 00:29:39;;;;;;;8.98;6.78;;;6.00;90.90;;;;;;5033816;28;20178;-68
2022/03/25 00:32:05;;;;;;;9.13;6.90;;;6.00;90.90;;;;;;5030914;28;20208;-68
2022/03/25 00:34:30;;;;;;;9.00;7.25;;;6.00;91.00;;;;;;5034533;28;20205;-68
2022/03/25 00:36:56;;;;;;;6.03;5.43;;;5.90;91.00;;;;;;5035011;28;20169;-69
2022/03/25 00:39:22;;;;;;;10.33;6.33;;;5.90;91.30;;;;;;5033406;28;20167;-70
2022/03/25 00:41:48;;;;;;;7.53;6.17;;;5.80;91.60;;;;;;5034904;28;20563;-68
2022/03/25 00:44:14;;;;;;;9.50;7.63;;;5.80;91.80;;;;;;5034446;28;20515;-68
2022/03/25 00:46:40;;;;;;;6.97;5.18;;;5.70;91.90;;;;;;5017072;28;20182;-69
2022/03/25 00:49:06;;;;;;;6.35;5.22;;;5.70;92.30;;;;;;5014903;28;20183;-69
2022/03/25 00:51:34;;;;;;;10.00;7.43;;;5.70;92.60;;;;;;5015078;28;20217;-68
2022/03/25 00:54:00;;;;;;;13.90;7.03;;;5.60;92.80;;;;;;5014568;28;20194;-68
2022/03/25 00:56:26;;;;;;;7.30;6.60;;;5.60;93.10;;;;;;5015038;28;20579;-68
2022/03/25 00:58:51;;;;;;;13.20;5.82;;;5.60;93.30;;;;;;5013544;28;20229;-68
2022/03/25 01:01:17;;;;;;;10.90;7.17;;;5.60;93.30;;;;;;5030948;28;20633;-67
2022/03/25 01:03:43;;;;;;;8.27;6.60;;;5.60;93.40;;;;;;5034080;28;20260;-68
2022/03/25 01:06:09;;;;;;;9.07;6.10;;;5.50;93.50;;;;;;5033129;28;20240;-68
2022/03/25 01:08:35;;;;;;;6.35;5.82;;;5.50;93.40;;;;;;5034509;28;20169;-69
2022/03/25 01:11:04;;;;;;;8.83;5.67;;;5.50;93.60;;;;;;5034548;28;20178;-69
2022/03/25 01:13:33;;;;;;;10.32;6.18;;;5.50;93.70;;;;;;5034111;28;20177;-68
2022/03/25 01:16:00;;;;;;;7.85;6.55;;;5.40;94.00;;;;;;5017886;28;20198;-68
2022/03/25 01:18:26;;;;;;;11.38;6.47;;;5.30;94.30;;;;;;5014541;28;20629;-68
2022/03/25 01:20:51;;;;;;;7.80;6.67;;;5.30;94.30;;;;;;5014734;28;20188;-69
2022/03/25 01:23:17;;;;;;;9.50;5.47;;;5.30;94.30;;;;;;5014062;28;20611;-68
2022/03/25 01:25:43;;;;;;;15.57;7.40;;;5.40;94.40;;;;;;5014448;28;20190;-69
2022/03/25 01:28:09;;;;;;;8.37;5.90;;;5.30;94.50;;;;;;5014455;28;20413;-67
2022/03/25 01:30:35;;;;;;;8.33;5.60;;;5.30;94.80;;;;;;5014287;28;20181;-68
2022/03/25 01:33:01;;;;;;;8.55;5.55;;;5.20;94.70;;;;;;5012885;28;20422;-68
2022/03/25 01:35:26;;;;;;;8.60;5.87;;;5.20;94.80;;;;;;5013943;28;20231;-68
2022/03/25 01:37:52;;;;;;;8.00;6.77;;;5.10;95.30;;;;;;5014184;28;20166;-68
2022/03/25 01:40:18;;;;;;;9.93;6.65;;;5.00;96.00;;;;;;5013080;28;20178;-69
2022/03/25 01:42:44;;;;;;;7.50;6.43;;;5.00;95.80;;;;;;5014161;28;20166;-68
2022/03/25 01:45:11;;;;;;;10.10;7.53;;;5.00;96.00;;;;;;5025866;28;20194;-68
2022/03/25 01:47:38;;;;;;;7.85;6.43;;;4.90;96.40;;;;;;5032439;28;20660;-68
2022/03/25 01:50:11;;;;;;;9.65;6.45;;;4.90;96.60;;;;;;5033640;28;20180;-68
2022/03/25 01:52:41;;;;;;;8.48;6.80;;;4.90;96.60;;;;;;5032946;28;20177;-67
2022/03/25 01:55:20;;;;;;;7.40;5.90;;;4.90;96.70;;;;;;5015004;28;20628;-68
2022/03/25 01:57:45;;;;;;;7.90;5.90;;;4.80;96.70;;;;;;5031740;28;20166;-67
2022/03/25 02:00:15;;;;;;;10.00;7.00;;;4.80;96.90;;;;;;5030927;28;20189;-68
2022/03/25 02:02:41;;;;;;;9.07;6.38;;;4.70;97.20;;;;;;5028224;28;20179;-69
2022/03/25 02:05:08;;;;;;;6.60;6.00;;;4.70;97.60;;;;;;5011273;28;20210;-68
2022/03/25 02:07:33;;;;;;;8.93;6.20;;;4.60;98.10;;;;;;5011682;28;20789;-68
2022/03/25 02:10:00;;;;;;;11.07;8.37;;;4.60;98.50;;;;;;5012143;28;20309;-67
2022/03/25 02:12:26;;;;;;;10.20;7.28;;;4.60;99.00;;;;;;4995131;28;20179;-68
2022/03/25 02:14:51;;;;;;;8.53;5.17;;;4.60;99.20;;;;;;5011173;28;20221;-68
2022/03/25 02:17:17;;;;;;;6.00;4.90;;;4.70;99.30;;;;;;5013132;28;20185;-69
2022/03/25 02:19:43;;;;;;;9.17;6.87;;;4.70;99.40;;;;;;5012361;28;20414;-68
2022/03/25 02:22:08;;;;;;;8.57;5.57;;;4.60;99.70;;;;;;4995211;28;20655;-69
2022/03/25 02:24:34;;;;;;;6.03;5.43;;;4.60;99.80;;;;;;5011186;28;20190;-68
2022/03/25 02:27:02;;;;;;;7.30;6.60;;;4.50;99.80;;;;;;5013344;28;20637;-68
2022/03/25 02:29:28;;;;;;;7.68;4.75;;;4.50;99.80;;;;;;5013809;28;20405;-68
2022/03/25 02:31:53;;;;;;;6.40;5.80;;;4.50;99.80;;;;;;5012696;28;20171;-69
2022/03/25 02:34:19;;;;;;;12.27;7.13;;;4.40;99.80;;;;;;5032656;28;20193;-68
2022/03/25 02:36:46;;;;;;;9.20;6.97;;;4.40;99.90;;;;;;5033345;28;20206;-69
2022/03/25 02:39:14;;;;;;;11.93;7.43;;;4.30;99.90;;;;;;5031683;28;20261;-68
2022/03/25 02:41:40;;;;;;;9.90;5.88;;;4.30;99.90;;;;;;5014363;28;20528;-68
2022/03/25 02:44:07;;;;;;;6.60;6.00;;;4.20;99.90;;;;;;5013073;28;20171;-69
2022/03/25 02:46:33;;;;;;;6.30;5.53;;;4.20;99.90;;;;;;5013235;28;20187;-68
2022/03/25 02:48:58;;;;;;;6.20;5.40;;;4.20;99.90;;;;;;5013506;28;20224;-69
2022/03/25 02:51:24;;;;;;;9.03;6.23;;;4.20;99.90;;;;;;5013277;28;20178;-69
2022/03/25 02:53:50;;;;;;;11.15;6.97;;;4.20;99.90;;;;;;5012826;28;20167;-69
2022/03/25 02:56:17;;;;;;;7.97;5.60;;;4.20;99.90;;;;;;5015114;28;20202;-69
2022/03/25 02:58:44;;;;;;;9.38;6.05;;;4.10;99.90;;;;;;5017119;28;20185;-70
2022/03/25 03:01:09;;;;;;;6.40;5.75;;;4.10;99.90;;;;;;5035499;28;20174;-69
2022/03/25 03:03:35;;;;;;;7.07;6.37;;;4.10;99.90;;;;;;5036534;28;20652;-69
2022/03/25 03:06:01;;;;;;;13.57;7.40;;;4.00;99.90;;;;;;5036738;28;20483;-69
2022/03/25 03:08:27;;;;;;;10.70;7.47;;;3.90;99.90;;;;;;5036752;28;20185;-69
2022/03/25 03:10:53;;;;;;;8.63;6.93;;;3.90;99.90;;;;;;5017438;28;20521;-68
2022/03/25 03:13:20;;;;;;;8.40;7.07;;;3.90;99.90;;;;;;5016527;28;20181;-69
2022/03/25 03:15:47;;;;;;;9.00;5.85;;;3.80;99.90;;;;;;5017765;28;20476;-68
2022/03/25 03:18:13;;;;;;;9.95;8.25;;;3.80;99.90;;;;;;5016792;28;20167;-68
2022/03/25 03:20:38;;;;;;;8.73;6.40;;;3.80;99.90;;;;;;5016706;28;20170;-69
2022/03/25 03:23:05;;;;;;;12.07;7.27;;;3.70;99.90;;;;;;5016297;28;20413;-73
2022/03/25 03:25:31;;;;;;;8.60;5.90;;;3.70;99.90;;;;;;5016659;28;20512;-69
2022/03/25 03:27:57;;;;;;;8.27;5.40;;;3.70;99.90;;;;;;5016801;28;20205;-69
2022/03/25 03:30:23;;;;;;;6.03;5.53;;;3.60;99.90;;;;;;5017736;28;20409;-67
2022/03/25 03:32:54;;;;;;;9.05;5.90;;;3.60;99.90;;;;;;5036427;28;20405;-68
2022/03/25 03:35:20;;;;;;;7.65;5.53;;;3.60;99.90;;;;;;5035782;28;20340;-68
2022/03/25 03:37:46;;;;;;;6.47;5.50;;;3.50;99.90;;;;;;5036318;28;20664;-68
2022/03/25 03:40:17;;;;;;;9.25;6.97;;;3.50;99.90;;;;;;5036192;28;20170;-69
2022/03/25 03:42:43;;;;;;;10.32;7.00;;;3.50;99.90;;;;;;5036269;28;20261;-71
2022/03/25 03:45:10;;;;;;;8.05;6.10;;;3.50;99.90;;;;;;5033917;28;20273;-69
2022/03/25 03:47:36;;;;;;;7.13;5.65;;;3.50;99.90;;;;;;5016336;28;20170;-69
2022/03/25 03:50:08;;;;;;;7.67;6.03;;;3.50;99.90;;;;;;5016102;28;20228;-69
2022/03/25 03:52:35;;;;;;;12.13;5.30;;;3.50;99.90;;;;;;5016249;28;20202;-69
2022/03/25 03:55:01;;;;;;;12.52;7.75;;;3.50;99.90;;;;;;5015632;28;20217;-69
2022/03/25 03:57:27;;;;;;;15.10;7.85;;;3.50;99.90;;;;;;5016133;28;20237;-69
2022/03/25 03:59:52;;;;;;;12.70;7.40;;;3.50;99.90;;;;;;5017040;28;20162;-68
2022/03/25 04:02:18;;;;;;;9.00;5.77;;;3.50;99.90;;;;;;5035780;28;20174;-69
2022/03/25 04:04:44;;;;;;;9.47;6.57;;;3.50;99.90;;;;;;5035385;28;20194;-68
2022/03/25 04:07:09;;;;;;;8.67;5.93;;;3.40;99.90;;;;;;5034804;28;20224;-69
2022/03/25 04:09:37;;;;;;;7.07;5.25;;;3.40;99.90;;;;;;5035611;28;20202;-68
2022/03/25 04:12:03;;;;;;;7.47;6.83;;;3.30;99.90;;;;;;5035679;28;20506;-69
2022/03/25 04:14:28;;;;;;;15.18;5.97;;;3.20;99.90;;;;;;5034406;28;20700;-67
2022/03/25 04:16:54;;;;;;;9.80;7.40;;;3.20;99.90;;;;;;5015786;28;20178;-67
2022/03/25 04:19:19;;;;;;;10.27;6.53;;;3.30;99.90;;;;;;5015471;28;20214;-68
2022/03/25 04:21:45;;;;;;;8.50;7.70;;;3.20;99.90;;;;;;5015609;28;20171;-69
2022/03/25 04:24:11;;;;;;;9.57;6.53;;;3.20;99.90;;;;;;5015138;28;20528;-69
2022/03/25 04:26:36;;;;;;;11.57;7.00;;;3.20;99.90;;;;;;5015558;28;20175;-69
2022/03/25 04:29:02;;;;;;;6.80;5.27;;;3.20;99.90;;;;;;5015533;28;20175;-69
2022/03/25 04:31:28;;;;;;;7.43;5.80;;;3.20;99.90;;;;;;5017215;28;20187;-68
2022/03/25 04:33:54;;;;;;;7.07;5.87;;;3.10;99.90;;;;;;5015117;28;20868;-69
2022/03/25 04:36:19;;;;;;;8.77;6.23;;;3.20;99.90;;;;;;5015145;28;20202;-69
2022/03/25 04:38:45;;;;;;;10.03;6.30;;;3.10;99.90;;;;;;5015396;28;20190;-68
2022/03/25 04:41:11;;;;;;;10.17;5.93;;;3.10;99.90;;;;;;5015450;28;20174;-69
2022/03/25 04:43:40;;;;;;;8.30;6.20;;;3.10;99.90;;;;;;5014918;28;20182;-69
2022/03/25 04:46:06;;;;;;;8.68;6.30;;;3.00;99.90;;;;;;5032364;28;20448;-67
2022/03/25 04:48:32;;;;;;;12.10;7.10;;;3.00;99.90;;;;;;5034918;28;20182;-70
2022/03/25 04:50:59;;;;;;;7.40;6.47;;;3.00;99.90;;;;;;5034855;28;20174;-68
2022/03/25 04:53:25;;;;;;;12.77;7.38;;;3.00;99.90;;;;;;5033169;28;20644;-68
2022/03/25 04:55:52;;;;;;;12.98;6.25;;;3.00;99.90;;;;;;5034736;28;20208;-68
2022/03/25 04:58:18;;;;;;;13.32;5.78;;;3.00;99.90;;;;;;5034857;28;20312;-68
2022/03/25 05:00:44;;;;;;;12.07;5.80;;;2.90;99.90;;;;;;5016243;28;20171;-68
2022/03/25 05:03:11;;;;;;;9.03;5.97;;;2.90;99.90;;;;;;5014452;28;20205;-68
2022/03/25 05:05:37;;;;;;;9.55;5.88;;;3.00;99.90;;;;;;5015204;28;20449;-67
2022/03/25 05:08:03;;;;;;;8.50;6.25;;;3.00;99.90;;;;;;5039232;28;20181;-67
2022/03/25 05:10:29;;;;;;;5.28;4.70;;;2.90;99.90;;;;;;5032087;28;20260;-70
2022/03/25 05:12:55;;;;;;;10.55;6.35;;;2.90;99.90;;;;;;5032629;28;20182;-68
2022/03/25 05:15:21;;;;;;;9.40;5.43;;;2.90;99.90;;;;;;5032721;28;20221;-67
2022/03/25 05:17:48;;;;;;;8.17;7.23;;;2.90;99.90;;;;;;5033086;28;20228;-70
2022/03/25 05:20:16;;;;;;;11.20;8.07;;;2.90;99.90;;;;;;5021862;28;20187;-70
2022/03/25 05:22:42;;;;;;;13.02;8.27;;;2.90;99.90;;;;;;5025074;28;20173;-69
2022/03/25 05:25:09;;;;;;;11.77;6.28;;;2.90;99.90;;;;;;5031841;28;20643;-70
2022/03/25 05:28:03;;;;;;;7.30;4.97;;;2.90;99.90;;;;;;5032042;28;20185;-69
2022/03/25 05:30:31;;;;;;;7.10;5.82;;;3.00;99.90;;;;;;5028107;28;20183;-69
2022/03/25 05:32:58;;;;;;;9.35;7.35;;;3.00;99.90;;;;;;5012298;28;20261;-69
2022/03/25 05:35:25;;;;;;;11.13;6.25;;;3.00;99.90;;;;;;5011824;28;20202;-68
2022/03/25 05:37:52;;;;;;;10.23;6.60;;;3.00;99.90;;;;;;5012203;28;20166;-68
2022/03/25 05:40:20;;;;;;;8.15;6.18;;;3.10;99.90;;;;;;5014249;28;20174;-68
2022/03/25 05:42:46;;;;;;;11.68;6.85;;;3.10;99.90;;;;;;5027022;28;20186;-67
2022/03/25 05:45:12;;;;;;;11.38;7.65;;;3.10;99.90;;;;;;5033580;28;20576;-67
2022/03/25 05:47:39;;;;;;;8.57;6.90;;;3.20;99.90;;;;;;5031867;28;20186;-68
2022/03/25 05:50:07;;;;;;;12.52;6.75;;;3.30;99.90;;;;;;5033735;28;20514;-68
2022/03/25 05:52:42;;;;;;;14.52;6.65;;;3.40;99.90;;;;;;5033789;28;20610;-69
2022/03/25 05:55:09;;;;;;;9.70;7.22;;;3.60;99.90;;;;;;5033146;28;20249;-67
2022/03/25 05:57:35;;;;;;;13.02;8.13;;;3.80;99.90;;;;;;5019780;28;20229;-68
2022/03/25 06:00:00;;;;;;;9.98;7.13;;;3.90;99.90;;;;;;5014094;28;20561;-67
2022/03/25 06:02:26;;;;;;;12.30;7.80;;;4.10;99.90;;;;;;5013961;28;20182;-68
2022/03/25 06:04:53;;;;;;;14.40;8.47;;;4.30;99.90;;;;;;5013284;28;20199;-69
2022/03/25 06:07:19;;;;;;;12.50;8.00;;;4.50;99.90;;;;;;5028336;28;20463;-66
2022/03/25 06:09:44;;;;;;;14.80;7.63;;;4.80;99.90;;;;;;5033372;28;20170;-68
2022/03/25 06:12:11;;;;;;;9.70;7.13;;;5.00;99.90;;;;;;5020408;28;20186;-68
2022/03/25 06:14:37;;;;;;;11.57;7.50;;;5.30;99.90;;;;;;5051518;28;20470;-69
2022/03/25 06:17:04;;;;;;;8.57;5.45;;;5.30;99.90;;;;;;5036297;28;20592;-71
2022/03/25 06:19:29;;;;;;;9.82;7.85;;;5.50;99.90;;;;;;5033184;28;20170;-70
2022/03/25 06:21:56;;;;;;;14.23;8.10;;;5.60;99.90;;;;;;5019458;28;20201;-69
2022/03/25 06:24:22;;;;;;;12.02;7.80;;;5.90;99.90;;;;;;5024533;28;20218;-70
2022/03/25 06:26:48;;;;;;;11.03;6.73;;;6.10;99.70;;;;;;5025627;28;20888;-67
2022/03/25 06:29:13;;;;;;;8.57;7.50;;;6.40;99.20;;;;;;5012213;28;20466;-67
2022/03/25 06:31:39;;;;;;;8.80;6.17;;;6.70;98.60;;;;;;5013373;28;20187;-68
2022/03/25 06:34:05;;;;;;;13.87;9.40;;;6.90;98.20;;;;;;5015699;28;20182;-69
2022/03/25 06:36:31;;;;;;;10.40;7.97;;;7.20;97.60;;;;;;5013527;28;20190;-69
2022/03/25 06:38:57;;;;;;;6.73;5.77;;;7.50;97.20;;;;;;5031738;28;20471;-70
2022/03/25 06:41:23;;;;;;;8.07;7.03;;;7.70;96.30;;;;;;5031118;28;20217;-68
2022/03/25 06:43:49;;;;;;;12.60;7.80;;;8.00;95.90;;;;;;5014300;28;20206;-69
2022/03/25 06:46:17;;;;;;;8.27;7.38;;;8.30;95.10;;;;;;5022563;28;20440;-69
2022/03/25 06:48:44;;;;;;;14.38;9.25;;;8.70;94.60;;;;;;5015789;28;20171;-70
2022/03/25 06:51:12;;;;;;;15.00;10.48;;;9.10;93.20;;;;;;5022214;28;20171;-65
2022/03/25 06:53:37;;;;;;;18.27;8.63;;;9.20;92.20;;;;;;5014822;28;20187;-69
2022/03/25 06:56:04;;;;;;;20.57;9.10;;;9.40;91.80;;;;;;5012545;28;20601;-69
2022/03/25 06:58:31;;;;;;;13.75;8.55;;;9.60;91.00;;;;;;5031441;28;20413;-68
2022/03/25 07:00:57;;;;;;;12.43;9.75;;;9.90;91.50;;;;;;5034559;28;20533;-67
2022/03/25 07:03:23;;;;;;;13.40;9.43;;;10.30;90.00;;;;;;5018297;28;20191;-67
2022/03/25 07:05:51;;;;;;;11.63;9.07;;;10.70;86.70;;;;;;5021570;28;20199;-65
2022/03/25 07:08:19;;;;;;;10.50;7.80;;;11.20;85.90;;;;;;5034538;28;20414;-66
2022/03/25 07:10:45;;;;;;;15.57;9.43;;;11.70;84.30;;;;;;5023445;28;20435;-66
2022/03/25 07:13:11;;;;;;;11.03;8.53;;;12.30;82.00;;;;;;5014591;28;20416;-70
2022/03/25 07:15:36;;;;;;;16.07;11.80;;;12.90;78.00;;;;;;5025602;28;20202;-68
2022/03/25 07:18:02;;;;;;;11.73;7.43;;;13.50;75.10;;;;;;5031534;28;20417;-68
2022/03/25 07:20:27;;;;;;;10.00;7.87;;;14.10;76.00;;;;;;5021874;28;20216;-70
2022/03/25 07:22:54;;;;;;;14.50;9.43;;;14.90;72.10;;;;;;5031263;28;20185;-68
2022/03/25 07:25:21;;;;;;;10.00;8.53;;;15.30;69.30;;;;;;5029964;28;20197;-68
2022/03/25 07:27:47;;;;;;;17.67;9.60;;;15.50;68.50;;;;;;5030926;28;20431;-67
2022/03/25 07:30:14;;;;;;;12.90;8.57;;;15.60;66.70;;;;;;5024618;28;20889;-69
2022/03/25 07:32:41;;;;;;;10.90;8.33;;;15.70;66.80;;;;;;5031532;28;20414;-69
2022/03/25 07:35:08;;;;;;;12.40;9.07;;;15.60;65.80;;;;;;5031417;28;20460;-67
2022/03/25 07:37:34;;;;;;;11.97;10.13;;;15.60;64.60;;;;;;5013325;28;20420;-66
2022/03/25 07:40:00;;;;;;;12.97;8.40;;;15.40;64.70;;;;;;5018477;28;20430;-66
2022/03/25 07:42:25;;;;;;;11.70;9.33;;;15.30;64.20;;;;;;5027467;28;20591;-66
2022/03/25 07:44:51;;;;;;;10.70;8.20;;;15.00;63.30;;;;;;5032770;28;20205;-66
2022/03/25 07:47:16;;;;;;;12.30;9.70;;;14.90;64.00;;;;;;5030633;28;20174;-65
2022/03/25 07:49:43;;;;;;;10.90;9.53;;;15.40;65.10;;;;;;5036048;28;20661;-67
2022/03/25 07:52:10;;;;;;;10.13;8.53;;;15.90;63.70;;;;;;5018180;28;20184;-66
2022/03/25 07:54:36;;;;;;;15.17;10.50;;;16.30;62.70;;;;;;5031879;28;20464;-66
2022/03/25 07:57:02;;;;;;;13.10;9.53;;;16.90;60.60;;;;;;5028282;28;20425;-68
2022/03/25 07:59:30;;;;;;;12.40;10.27;;;17.50;59.90;;;;;;5034230;28;20769;-68
2022/03/25 08:01:56;;;;;;;11.10;9.27;;;18.00;59.30;;;;;;5024110;28;20512;-67
2022/03/25 08:07:13;;;;;;;12.07;9.70;;;19.30;56.80;;;;;;5029227;28;20428;-67
2022/03/25 08:09:39;;;;;;;12.37;9.50;;;19.70;56.60;;;;;;5035641;28;20479;-68
2022/03/25 08:12:06;;;;;;;14.23;10.80;;;20.40;55.30;;;;;;5022801;28;20421;-67
2022/03/25 08:14:52;;;;;;;13.80;10.90;;;21.00;53.10;;;;;;5021673;28;20293;-67
2022/03/25 08:17:23;;;;;;;15.70;10.07;;;21.40;53.20;;;;;;5033798;28;20422;-66
2022/03/25 08:19:49;;;;;;;13.10;10.60;;;21.70;52.40;;;;;;5020671;28;20422;-64
2022/03/25 08:22:15;;;;;;;14.53;11.00;;;21.80;52.10;;;;;;5039823;28;20384;-64
2022/03/25 08:30:15;;;;;;;15.03;12.07;;;22.30;50.40;;;;;;5042315;28;20389;-65
2022/03/25 08:32:40;;;;;;;12.53;10.47;;;22.70;50.00;;;;;;5021470;28;20395;-66
2022/03/25 08:35:07;;;;;;;16.13;11.57;;;22.70;49.40;;;;;;5042377;28;20442;-66
2022/03/25 08:37:33;;;;;;;12.20;10.10;;;23.00;49.00;;;;;;5032263;28;20549;-67
2022/03/25 08:39:59;;;;;;;14.77;11.87;;;23.30;49.10;;;;;;5025167;28;20396;-66
2022/03/25 08:42:24;;;;;;;14.03;11.60;;;23.60;48.00;;;;;;5033081;28;20225;-66
2022/03/25 08:44:50;;;;;;;15.80;11.63;;;23.60;47.10;;;;;;5032208;28;20284;-66
2022/03/25 08:47:16;;;;;;;13.70;12.27;;;23.50;47.00;;;;;;5017049;28;20198;-67
2022/03/25 08:49:41;;;;;;;13.03;10.57;;;23.60;46.70;;;;;;5034830;28;20205;-66
2022/03/25 08:52:07;;;;;;;14.27;12.13;;;23.80;46.90;;;;;;5023303;28;20604;-64
2022/03/25 08:54:33;;;;;;;12.90;11.57;;;24.20;46.70;;;;;;5033684;28;20259;-64
2022/03/25 08:56:58;;;;;;;13.30;11.53;;;24.50;46.60;;;;;;5023572;28;20266;-70
2022/03/25 08:59:24;;;;;;;13.83;12.33;;;24.80;46.30;;;;;;5015140;28;20550;-66
2022/03/25 09:01:50;;;;;;;16.00;11.10;;;25.20;44.50;;;;;;5018481;28;20440;-65
2022/03/25 09:04:16;;;;;;;17.00;12.97;;;25.30;44.60;;;;;;5021168;28;20182;-64
2022/03/25 09:06:42;;;;;;;15.23;11.70;;;25.30;43.60;;;;;;5033183;28;20416;-64
2022/03/25 09:09:07;;;;;;;15.97;12.23;;;25.40;43.20;;;;;;5032987;28;20166;-64
2022/03/25 09:11:34;;;;;;;17.17;14.50;;;25.50;43.10;;;;;;5034794;28;20581;-72
2022/03/25 09:14:00;;;;;;;16.90;14.47;;;25.80;42.30;;;;;;5032708;28;20198;-71
2022/03/25 09:16:26;;;;;;;18.77;12.73;;;25.90;42.00;;;;;;5031930;28;20450;-70
2022/03/25 09:18:52;;;;;;;15.10;13.10;;;26.00;42.00;;;;;;5022957;28;20978;-70
2022/03/25 09:21:18;;;;;;;16.80;13.33;;;26.10;41.70;;;;;;5031517;28;20410;-69
2022/03/25 09:23:43;;;;;;;16.65;13.65;;;26.10;42.60;;;;;;5031753;28;20425;-73
2022/03/25 09:26:09;;;;;;;15.80;14.10;;;26.40;42.30;;;;;;5032336;28;20210;-72
2022/03/25 09:28:35;;;;;;;16.27;12.90;;;26.10;41.20;;;;;;5032956;28;20185;-70
2022/03/25 09:31:00;;;;;;;16.33;14.00;;;26.20;41.20;;;;;;5028029;28;20186;-70
2022/03/25 09:33:26;;;;;;;16.57;13.73;;;26.20;41.80;;;;;;5032892;28;20680;-70
2022/03/25 09:35:52;;;;;;;15.20;12.87;;;26.30;41.40;;;;;;5033078;28;20564;-69
2022/03/25 09:38:18;;;;;;;19.07;13.70;;;26.50;42.10;;;;;;5032804;28;20584;-70
2022/03/25 09:40:46;;;;;;;15.97;13.27;;;26.80;41.30;;;;;;5031863;28;20433;-69
2022/03/25 09:43:12;;;;;;;15.67;13.37;;;27.10;41.70;;;;;;5030525;28;20185;-67
2022/03/25 09:45:37;;;;;;;14.87;12.77;;;27.20;41.10;;;;;;5032649;28;20439;-70
2022/03/25 09:48:05;;;;;;;17.40;13.27;;;27.40;40.90;;;;;;5025832;28;20201;-69
2022/03/25 09:50:33;;;;;;;18.43;14.30;;;27.40;39.90;;;;;;5032812;28;20514;-69
2022/03/25 09:52:59;;;;;;;15.23;13.30;;;27.30;39.70;;;;;;5031871;28;20464;-69
2022/03/25 09:55:24;;;;;;;20.77;13.53;;;27.10;40.60;;;;;;5030991;28;20482;-69
2022/03/25 09:57:50;;;;;;;19.10;14.37;;;27.00;40.90;;;;;;5019254;28;20408;-70
2022/03/25 10:00:18;;;;;;;16.13;13.87;;;26.90;40.40;;;;;;5026921;28;20236;-69
2022/03/25 10:02:45;;;;;;;16.40;14.13;;;27.10;39.60;;;;;;5027702;28;20273;-68
2022/03/25 10:05:18;;;;;;;17.60;13.83;;;27.20;39.80;;;;;;5021829;28;20988;-69
2022/03/25 10:07:49;;;;;;;18.23;14.37;;;27.30;39.70;;;;;;5013913;28;20474;-69
2022/03/25 10:10:22;;;;;;;23.17;14.60;;;27.30;39.40;;;;;;5023310;28;20388;-68
2022/03/25 10:13:00;;;;;;;14.87;12.73;;;27.30;38.40;;;;;;5027353;28;20402;-68
2022/03/25 10:15:28;;;;;;;17.33;13.10;;;27.00;38.20;;;;;;5038427;28;20411;-70
2022/03/25 10:18:04;;;;;;;15.00;12.90;;;26.80;38.60;;;;;;5030336;28;20522;-70
2022/03/25 10:20:35;;;;;;;16.87;14.10;;;26.60;39.40;;;;;;5032845;28;20916;-70
2022/03/25 10:23:01;;;;;;;16.60;13.20;;;26.60;38.90;;;;;;5027464;28;20481;-71
2022/03/25 10:25:50;;;;;;;18.80;12.90;;;26.50;38.70;;;;;;5031218;28;20900;-70
2022/03/25 10:28:39;;;;;;;15.97;13.07;;;26.40;38.40;;;;;;5023636;28;20217;-70
2022/03/25 10:31:11;;;;;;;17.10;12.93;;;26.30;38.10;;;;;;5023474;28;20444;-69
2022/03/25 10:33:47;;;;;;;16.73;13.30;;;26.10;38.60;;;;;;5028315;28;20392;-70
2022/03/25 10:36:19;;;;;;;15.03;11.53;;;26.20;38.90;;;;;;5030888;28;20445;-69
2022/03/25 10:38:48;;;;;;;14.30;11.93;;;26.20;38.40;;;;;;5032940;28;20375;-71
2022/03/25 10:41:19;;;;;;;12.27;10.40;;;26.70;38.30;;;;;;5025773;28;20401;-71
2022/03/25 10:43:52;;;;;;;15.20;12.63;;;27.30;37.70;;;;;;5031850;28;20410;-71
2022/03/25 10:46:39;;;;;;;19.50;13.90;;;27.70;37.10;;;;;;5031230;28;20499;-71
2022/03/25 10:49:07;;;;;;;16.37;12.50;;;27.40;37.90;;;;;;5033121;28;20904;-70
2022/03/25 10:51:38;;;;;;;18.37;13.00;;;27.30;36.80;;;;;;5030793;28;20486;-73
2022/03/25 10:54:12;;;;;;;15.40;12.73;;;27.20;37.30;;;;;;5031964;28;20741;-72
2022/03/25 10:56:49;;;;;;;16.70;13.27;;;26.80;37.70;;;;;;5013498;28;20433;-71
2022/03/25 10:59:32;;;;;;;16.10;12.13;;;26.60;37.50;;;;;;5029594;28;20495;-71
2022/03/25 11:02:00;;;;;;;17.77;13.03;;;26.60;37.90;;;;;;5027526;28;20834;-70
2022/03/25 11:04:28;;;;;;;14.33;11.90;;;26.60;37.60;;;;;;5026087;28;20759;-70
2022/03/25 11:06:56;;;;;;;17.53;12.30;;;26.50;39.40;;;;;;5030097;28;20766;-70
2022/03/25 11:09:23;;;;;;;16.10;12.37;;;26.20;38.90;;;;;;5014852;28;20406;-71
2022/03/25 11:11:52;;;;;;;20.00;13.80;;;26.00;39.20;;;;;;5031872;28;20387;-72
2022/03/25 11:14:24;;;;;;;18.40;13.40;;;25.40;39.30;;;;;;5031041;28;20403;-70
2022/03/25 11:17:07;;;;;;;17.17;12.63;;;24.90;39.90;;;;;;5033527;28;20500;-70
2022/03/25 11:19:37;;;;;;;17.07;12.00;;;23.70;40.20;;;;;;5033821;28;20454;-71
2022/03/25 11:22:09;;;;;;;18.57;12.57;;;23.00;40.80;;;;;;5035890;28;20413;-71
2022/03/25 11:24:49;;;;;;;15.30;12.00;;;22.20;42.10;;;;;;5034559;28;20460;-71
2022/03/25 11:27:38;;;;;;;15.80;11.73;;;21.50;42.90;;;;;;5002558;28;20433;-67
2022/03/25 11:30:09;;;;;;;17.93;10.73;;;20.90;44.00;;;;;;5032501;28;20431;-72
2022/03/25 11:33:04;;;;;;;17.90;10.37;;;20.60;44.80;;;;;;5035255;28;20428;-69
2022/03/25 11:35:33;;;;;;;17.47;11.20;;;20.40;43.70;;;;;;5035082;28;20429;-68
2022/03/25 11:38:13;;;;;;;19.10;11.50;;;20.30;43.30;;;;;;5034761;28;20427;-69
2022/03/25 11:40:46;;;;;;;15.90;10.33;;;20.10;43.90;;;;;;5034325;28;20412;-68
2022/03/25 11:43:26;;;;;;;14.30;10.10;;;20.10;45.70;;;;;;5034290;28;20425;-69
2022/03/25 11:46:06;;;;;;;17.53;10.90;;;20.10;47.10;;;;;;5025436;28;20469;-70
2022/03/25 11:48:38;;;;;;;20.13;11.03;;;20.00;47.00;;;;;;5026696;28;20740;-70
2022/03/25 11:51:27;;;;;;;14.90;9.70;;;20.00;46.80;;;;;;5034904;28;20432;-70
2022/03/25 11:53:53;;;;;;;17.77;11.30;;;20.00;46.60;;;;;;5031472;28;20482;-71
2022/03/25 11:56:19;;;;;;;13.27;9.70;;;20.10;46.30;;;;;;5033816;28;20506;-71
2022/03/25 11:59:14;;;;;;;14.57;10.80;;;20.00;44.90;;;;;;5028820;28;20512;-71
2022/03/25 12:01:40;;;;;;;19.17;11.40;;;19.90;45.30;;;;;;5005892;28;20190;-71
2022/03/25 12:04:06;;;;;;;15.63;11.07;;;19.80;46.60;;;;;;5012242;28;20442;-70
2022/03/25 12:07:00;;;;;;;15.57;10.60;;;19.80;45.00;;;;;;5032006;28;20601;-70
2022/03/25 12:09:34;;;;;;;18.63;11.07;;;19.70;46.10;;;;;;5014051;28;20464;-70
2022/03/25 12:12:00;;;;;;;19.43;12.90;;;19.70;46.00;;;;;;5012712;28;20948;-69
2022/03/25 12:14:33;;;;;;;19.93;12.80;;;19.60;46.50;;;;;;5012048;28;20483;-69
2022/03/25 12:17:01;;;;;;;18.67;10.97;;;19.60;46.20;;;;;;5012773;28;20890;-69
2022/03/25 12:19:27;;;;;;;15.90;10.50;;;19.60;47.20;;;;;;5012505;28;20515;-69
2022/03/25 12:21:53;;;;;;;16.20;11.17;;;19.70;47.30;;;;;;5011440;28;21027;-72
2022/03/25 12:24:19;;;;;;;13.10;10.10;;;19.80;46.60;;;;;;5001083;28;20267;-70
2022/03/25 12:26:45;;;;;;;19.07;11.53;;;19.90;46.00;;;;;;5032445;28;20429;-71
2022/03/25 12:29:11;;;;;;;14.80;10.03;;;20.00;45.40;;;;;;5002527;28;20428;-69
2022/03/25 12:31:38;;;;;;;17.33;11.00;;;19.90;44.00;;;;;;5032974;28;20900;-69
2022/03/25 12:34:05;;;;;;;14.03;10.13;;;19.80;44.10;;;;;;5020231;28;20591;-70
2022/03/25 12:36:56;;;;;;;16.90;9.70;;;19.80;44.40;;;;;;4996393;28;20480;-69
2022/03/25 12:39:22;;;;;;;18.40;11.40;;;19.80;44.00;;;;;;5018507;28;20945;-70
2022/03/25 12:41:50;;;;;;;18.70;11.30;;;19.70;44.30;;;;;;5034789;28;20434;-71
2022/03/25 12:44:24;;;;;;;13.67;10.27;;;19.70;44.50;;;;;;5034946;28;20485;-70
2022/03/25 12:46:52;;;;;;;16.90;11.90;;;19.60;44.00;;;;;;5030466;28;20864;-71
2022/03/25 12:49:17;;;;;;;15.43;9.50;;;19.50;45.30;;;;;;5034241;28;20427;-69
2022/03/25 12:51:58;;;;;;;12.83;9.73;;;19.50;45.40;;;;;;5034811;28;20974;-72
2022/03/25 12:54:24;;;;;;;16.50;10.77;;;19.60;43.40;;;;;;5014414;28;20265;-72